Time;durP1;ratioP1;P1;durP2;ratioP2;P2;SDS_P1;SDS_P2;PMS_P1;PMS_P2;Temp;Humidity;BMP_temperature;BMP_pressure;BME280_temperature;BME280_humidity;BME280_pressure;Samples;Min_cycle;Max_cycle;Signal;HPM_P1;HPM_P2
2021/08/13 00:01:00;;;;;;;11.55;10.02;;;20.70;91.70;;;;;;5058506;28;20118;-69
2021/08/13 00:03:26;;;;;;;13.93;9.80;;;20.70;91.80;;;;;;5058536;28;20029;-69
2021/08/13 00:05:51;;;;;;;11.23;8.70;;;20.70;91.80;;;;;;5063553;28;20032;-69
2021/08/13 00:08:17;;;;;;;11.55;9.60;;;20.70;91.90;;;;;;5058766;28;20032;-69
2021/08/13 00:10:43;;;;;;;13.00;9.38;;;20.70;91.90;;;;;;5042497;28;20029;-69
2021/08/13 00:13:09;;;;;;;14.00;10.48;;;20.70;91.90;;;;;;5057651;28;20025;-69
2021/08/13 00:15:35;;;;;;;11.20;9.20;;;20.70;91.90;;;;;;5058360;28;20033;-69
2021/08/13 00:18:00;;;;;;;13.10;9.73;;;20.70;91.90;;;;;;5054946;28;20375;-69
2021/08/13 00:20:26;;;;;;;10.85;8.98;;;20.70;92.00;;;;;;5060250;28;20027;-69
2021/08/13 00:22:52;;;;;;;13.40;9.73;;;20.70;92.00;;;;;;5058953;28;20055;-68
2021/08/13 00:25:19;;;;;;;11.73;9.27;;;20.70;92.00;;;;;;5041151;28;20033;-69
2021/08/13 00:27:45;;;;;;;14.13;9.98;;;20.70;92.20;;;;;;5042406;28;20042;-69
2021/08/13 00:30:11;;;;;;;12.45;9.77;;;20.70;92.10;;;;;;5036116;28;20059;-69
2021/08/13 00:32:37;;;;;;;11.32;10.07;;;20.70;92.30;;;;;;5059748;28;20028;-69
2021/08/13 00:35:03;;;;;;;12.52;10.13;;;20.70;92.10;;;;;;5057608;28;20489;-69
2021/08/13 00:37:29;;;;;;;11.40;9.65;;;20.70;92.10;;;;;;5041217;28;20036;-69
2021/08/13 00:39:54;;;;;;;13.38;10.02;;;20.70;92.20;;;;;;5056199;28;20433;-69
2021/08/13 00:42:20;;;;;;;11.13;9.85;;;20.70;92.10;;;;;;5056601;28;20081;-69
2021/08/13 00:44:46;;;;;;;12.65;9.73;;;20.70;92.20;;;;;;5054648;28;20021;-69
2021/08/13 00:47:12;;;;;;;12.93;10.32;;;20.70;92.20;;;;;;5039281;28;20067;-69
2021/08/13 00:49:37;;;;;;;12.15;10.02;;;20.70;92.20;;;;;;5056051;28;20024;-69
2021/08/13 00:52:04;;;;;;;11.90;9.32;;;20.70;92.10;;;;;;5059440;28;20044;-69
2021/08/13 00:54:30;;;;;;;13.18;10.00;;;20.70;92.10;;;;;;5041383;28;20032;-69
2021/08/13 00:56:56;;;;;;;16.75;9.73;;;20.70;92.00;;;;;;5057265;28;20047;-69
2021/08/13 00:59:22;;;;;;;14.45;10.93;;;20.70;92.00;;;;;;5055595;28;20502;-69
2021/08/13 01:01:48;;;;;;;13.98;10.32;;;20.70;92.00;;;;;;5058510;28;20047;-69
2021/08/13 01:04:14;;;;;;;11.75;9.65;;;20.70;92.00;;;;;;5058585;28;20029;-69
2021/08/13 01:06:39;;;;;;;12.00;10.45;;;20.70;92.00;;;;;;5060696;28;20040;-69
2021/08/13 01:09:06;;;;;;;13.52;10.35;;;20.70;92.00;;;;;;5041793;28;20490;-69
2021/08/13 01:11:46;;;;;;;11.18;9.40;;;20.70;92.00;;;;;;5059904;28;20089;-69
2021/08/13 01:14:27;;;;;;;11.20;9.85;;;20.70;92.10;;;;;;5040028;28;20119;-69
2021/08/13 01:16:56;;;;;;;15.30;9.82;;;20.70;92.10;;;;;;5060374;28;20513;-69
2021/08/13 01:19:40;;;;;;;12.90;9.77;;;20.60;92.20;;;;;;5059534;28;20039;-69
2021/08/13 01:22:22;;;;;;;12.55;10.00;;;20.60;92.30;;;;;;5057996;28;20052;-69
2021/08/13 01:24:50;;;;;;;12.55;9.98;;;20.60;92.40;;;;;;5056512;28;20028;-69
2021/08/13 01:27:26;;;;;;;12.07;10.35;;;20.60;92.30;;;;;;5060935;28;20041;-69
2021/08/13 01:30:00;;;;;;;13.23;10.27;;;20.60;92.50;;;;;;5061068;28;20107;-69
2021/08/13 01:32:45;;;;;;;14.65;10.95;;;20.70;92.50;;;;;;5042204;28;20603;-69
2021/08/13 01:35:24;;;;;;;14.25;9.98;;;20.70;92.40;;;;;;5058900;28;20486;-69
2021/08/13 01:37:58;;;;;;;13.15;10.18;;;20.70;92.40;;;;;;5040718;28;20037;-68
2021/08/13 01:40:26;;;;;;;13.57;10.77;;;20.60;92.40;;;;;;5056134;28;20016;-68
2021/08/13 01:42:54;;;;;;;13.93;10.38;;;20.70;92.40;;;;;;5058204;28;20071;-69
2021/08/13 01:45:25;;;;;;;11.93;10.02;;;20.60;92.30;;;;;;5056798;28;20024;-69
2021/08/13 01:47:52;;;;;;;12.98;10.15;;;20.70;92.40;;;;;;5057609;28;20063;-69
2021/08/13 01:50:19;;;;;;;12.88;10.75;;;20.60;92.40;;;;;;5041054;28;20028;-69
2021/08/13 01:52:45;;;;;;;11.52;10.05;;;20.70;92.40;;;;;;5059154;28;20040;-69
2021/08/13 01:55:13;;;;;;;14.20;11.10;;;20.60;92.50;;;;;;5060090;28;20411;-69
2021/08/13 01:57:39;;;;;;;12.35;10.00;;;20.60;92.50;;;;;;5042566;28;20096;-69
2021/08/13 02:00:06;;;;;;;11.93;9.98;;;20.60;92.50;;;;;;5065834;28;20446;-69
2021/08/13 02:02:35;;;;;;;12.50;10.18;;;20.60;92.50;;;;;;5060257;28;20029;-69
2021/08/13 02:05:02;;;;;;;12.02;10.23;;;20.60;92.50;;;;;;5063278;28;20033;-68
2021/08/13 02:07:28;;;;;;;13.25;10.50;;;20.60;92.60;;;;;;5062637;28;20397;-69
2021/08/13 02:09:55;;;;;;;14.80;10.30;;;20.60;92.60;;;;;;5061500;28;20370;-69
2021/08/13 02:12:20;;;;;;;14.38;10.50;;;20.60;92.70;;;;;;5043671;28;20025;-69
2021/08/13 02:14:46;;;;;;;15.63;10.63;;;20.60;92.70;;;;;;5041655;28;20024;-69
2021/08/13 02:17:17;;;;;;;14.20;10.80;;;20.60;92.80;;;;;;5062859;28;20074;-70
2021/08/13 02:19:54;;;;;;;13.65;10.82;;;20.60;92.70;;;;;;5062703;28;20052;-69
2021/08/13 02:22:20;;;;;;;14.90;11.02;;;20.60;92.80;;;;;;5061497;28;20032;-69
2021/08/13 02:24:46;;;;;;;12.93;10.52;;;20.60;92.80;;;;;;5045363;28;20017;-69
2021/08/13 02:27:12;;;;;;;13.70;10.13;;;20.60;92.80;;;;;;5064644;28;20064;-69
2021/08/13 02:29:38;;;;;;;14.00;10.60;;;20.60;92.90;;;;;;5060822;28;20067;-69
2021/08/13 02:32:04;;;;;;;15.90;11.18;;;20.60;92.90;;;;;;5057831;28;20495;-69
2021/08/13 02:34:30;;;;;;;15.73;11.55;;;20.50;92.90;;;;;;5041222;28;20048;-69
2021/08/13 02:37:04;;;;;;;14.63;11.63;;;20.50;93.00;;;;;;5060185;28;20402;-69
2021/08/13 02:39:39;;;;;;;14.45;11.15;;;20.50;93.10;;;;;;5041571;28;20086;-69
2021/08/13 02:42:07;;;;;;;13.48;10.88;;;20.50;93.20;;;;;;5059315;28;20053;-69
2021/08/13 02:44:35;;;;;;;17.85;10.98;;;20.50;93.30;;;;;;5046632;28;20140;-68
2021/08/13 02:47:06;;;;;;;13.13;10.18;;;20.40;93.30;;;;;;5059498;28;20052;-69
2021/08/13 02:49:34;;;;;;;13.10;10.57;;;20.40;93.30;;;;;;5058356;28;20115;-68
2021/08/13 02:52:06;;;;;;;14.02;10.80;;;20.40;93.30;;;;;;5057031;28;20486;-69
2021/08/13 02:54:34;;;;;;;13.48;11.05;;;20.40;93.40;;;;;;5060914;28;20456;-69
2021/08/13 02:57:01;;;;;;;15.50;11.25;;;20.40;93.40;;;;;;5064253;28;20107;-69
2021/08/13 02:59:30;;;;;;;15.02;11.43;;;20.40;93.40;;;;;;5056999;28;20512;-69
2021/08/13 03:01:59;;;;;;;15.73;12.05;;;20.30;93.40;;;;;;5045361;28;20025;-69
2021/08/13 03:04:29;;;;;;;15.75;11.45;;;20.30;93.50;;;;;;5061486;28;20082;-69
2021/08/13 03:06:56;;;;;;;19.50;11.80;;;20.30;93.70;;;;;;5058522;28;20044;-69
2021/08/13 03:09:23;;;;;;;17.95;12.02;;;20.30;93.50;;;;;;5062889;28;20104;-69
2021/08/13 03:11:52;;;;;;;16.35;12.68;;;20.20;93.50;;;;;;5061032;28;20033;-69
2021/08/13 03:14:19;;;;;;;13.27;11.10;;;20.20;93.60;;;;;;5061769;28;20047;-69
2021/08/13 03:16:46;;;;;;;14.85;12.00;;;20.20;93.60;;;;;;5061008;28;20040;-69
2021/08/13 03:19:12;;;;;;;16.33;11.95;;;20.10;93.60;;;;;;5064732;28;20036;-69
2021/08/13 03:21:38;;;;;;;16.33;12.35;;;20.10;93.60;;;;;;5061438;28;20033;-69
2021/08/13 03:24:04;;;;;;;17.52;13.15;;;20.10;93.70;;;;;;5064126;28;20367;-69
2021/08/13 03:26:31;;;;;;;17.45;13.48;;;20.00;93.70;;;;;;5065208;28;20036;-69
2021/08/13 03:28:57;;;;;;;17.65;12.05;;;20.00;93.80;;;;;;5043712;28;20082;-69
2021/08/13 03:31:37;;;;;;;16.15;11.93;;;20.00;93.80;;;;;;5039053;28;20028;-69
2021/08/13 03:34:06;;;;;;;16.23;13.32;;;19.90;93.80;;;;;;5043404;28;20470;-68
2021/08/13 03:36:31;;;;;;;16.45;12.75;;;19.90;93.80;;;;;;5046665;28;20032;-69
2021/08/13 03:38:57;;;;;;;17.83;13.15;;;19.90;93.90;;;;;;5058741;28;20435;-69
2021/08/13 03:41:23;;;;;;;19.77;12.23;;;19.90;93.80;;;;;;5046612;28;20107;-69
2021/08/13 03:43:49;;;;;;;16.20;12.90;;;19.90;93.90;;;;;;5060227;28;20036;-69
2021/08/13 03:46:15;;;;;;;18.20;13.35;;;19.80;93.90;;;;;;5056443;28;20035;-69
2021/08/13 03:48:40;;;;;;;16.10;12.68;;;19.80;93.90;;;;;;5061334;28;20535;-69
2021/08/13 03:51:06;;;;;;;15.85;12.80;;;19.80;93.90;;;;;;5062907;28;20028;-69
2021/08/13 03:53:32;;;;;;;19.15;14.20;;;19.80;94.00;;;;;;5058178;28;20504;-69
2021/08/13 03:55:57;;;;;;;16.60;13.15;;;19.70;94.00;;;;;;5064499;28;20028;-68
2021/08/13 03:58:23;;;;;;;16.83;13.60;;;19.70;94.00;;;;;;5063645;28;20032;-69
2021/08/13 04:00:49;;;;;;;18.80;13.07;;;19.70;94.00;;;;;;5046362;28;20106;-69
2021/08/13 04:03:14;;;;;;;17.48;13.73;;;19.70;94.00;;;;;;5058003;28;20051;-68
2021/08/13 04:05:40;;;;;;;16.63;13.63;;;19.70;94.00;;;;;;5057579;28;20494;-69
2021/08/13 04:08:06;;;;;;;14.95;11.82;;;19.70;93.90;;;;;;5040649;28;20376;-68
2021/08/13 04:10:32;;;;;;;20.52;13.73;;;19.70;93.90;;;;;;5040654;28;20405;-69
2021/08/13 04:12:57;;;;;;;17.90;14.20;;;19.70;93.90;;;;;;5039197;28;20402;-69
2021/08/13 04:15:23;;;;;;;17.63;12.98;;;19.70;93.90;;;;;;5041509;28;20475;-69
2021/08/13 04:17:49;;;;;;;16.77;12.23;;;19.70;93.90;;;;;;5043852;28;20029;-69
2021/08/13 04:20:15;;;;;;;19.23;13.82;;;19.70;93.90;;;;;;5059868;28;20028;-69
2021/08/13 04:22:41;;;;;;;20.52;14.35;;;19.70;94.00;;;;;;5058263;28;20472;-69
2021/08/13 04:25:07;;;;;;;16.63;13.00;;;19.70;94.00;;;;;;5045236;28;20025;-68
2021/08/13 04:27:33;;;;;;;18.25;14.23;;;19.70;93.90;;;;;;5041233;28;20063;-69
2021/08/13 04:29:59;;;;;;;15.80;12.55;;;19.60;93.90;;;;;;5060185;28;20025;-69
2021/08/13 04:32:25;;;;;;;17.58;12.60;;;19.60;93.90;;;;;;5061693;28;20028;-69
2021/08/13 04:34:50;;;;;;;19.10;14.45;;;19.60;93.90;;;;;;5042910;28;20172;-69
2021/08/13 04:37:16;;;;;;;18.70;14.63;;;19.60;94.00;;;;;;5070534;22;20044;-70
2021/08/13 04:39:42;;;;;;;17.52;14.25;;;19.60;93.90;;;;;;5040942;28;20032;-69
2021/08/13 04:42:07;;;;;;;18.70;14.13;;;19.60;94.00;;;;;;5054607;28;20028;-70
2021/08/13 04:44:33;;;;;;;19.08;13.45;;;19.60;94.00;;;;;;5058897;28;20223;-70
2021/08/13 04:47:00;;;;;;;16.85;13.80;;;19.60;94.00;;;;;;5057158;28;20061;-70
2021/08/13 04:49:26;;;;;;;19.08;14.20;;;19.60;94.00;;;;;;5040068;28;20033;-69
2021/08/13 04:51:52;;;;;;;20.30;14.45;;;19.60;94.00;;;;;;5037017;28;20643;-70
2021/08/13 04:54:18;;;;;;;21.95;13.85;;;19.60;94.10;;;;;;5057884;28;20505;-70
2021/08/13 04:56:43;;;;;;;22.15;15.35;;;19.60;94.10;;;;;;5038453;28;20064;-70
2021/08/13 04:59:09;;;;;;;20.73;15.32;;;19.70;94.00;;;;;;5051283;28;20025;-67
2021/08/13 05:01:35;;;;;;;18.67;13.55;;;19.70;94.10;;;;;;5058550;28;20048;-68
2021/08/13 05:04:01;;;;;;;17.27;14.00;;;19.70;94.10;;;;;;5045856;28;20033;-65
2021/08/13 05:06:27;;;;;;;17.67;13.00;;;19.70;94.10;;;;;;5047360;28;20064;-69
2021/08/13 05:08:53;;;;;;;20.63;14.57;;;19.70;94.10;;;;;;5055796;28;20036;-65
2021/08/13 05:11:18;;;;;;;22.02;14.73;;;19.70;94.10;;;;;;5050337;28;20058;-70
2021/08/13 05:13:44;;;;;;;17.65;13.40;;;19.80;94.10;;;;;;5050011;28;20036;-69
2021/08/13 05:16:10;;;;;;;17.92;13.85;;;19.80;94.10;;;;;;5040466;28;20052;-69
2021/08/13 05:18:35;;;;;;;18.20;14.77;;;19.80;94.10;;;;;;5044616;28;20035;-67
2021/08/13 05:21:01;;;;;;;19.90;14.13;;;19.90;94.10;;;;;;5031815;28;20033;-68
2021/08/13 05:23:27;;;;;;;16.40;13.65;;;19.90;94.00;;;;;;5054546;28;20033;-68
2021/08/13 05:25:56;;;;;;;19.52;14.13;;;19.90;94.00;;;;;;5049709;28;20493;-66
2021/08/13 05:28:22;;;;;;;17.20;13.95;;;19.90;94.00;;;;;;5027386;28;20398;-67
2021/08/13 05:30:48;;;;;;;18.60;13.95;;;20.00;94.00;;;;;;5044282;28;20028;-68
2021/08/13 05:33:13;;;;;;;18.38;12.90;;;20.00;94.20;;;;;;5054930;28;20037;-71
2021/08/13 05:35:39;;;;;;;19.13;15.00;;;20.00;94.00;;;;;;5059985;28;20402;-69
2021/08/13 05:38:05;;;;;;;17.20;14.32;;;20.10;93.90;;;;;;5062684;28;20043;-70
2021/08/13 05:40:31;;;;;;;16.77;13.90;;;20.20;93.80;;;;;;5025252;28;20032;-71
2021/08/13 05:42:58;;;;;;;18.00;14.25;;;20.20;93.70;;;;;;5041511;28;20033;-69
2021/08/13 05:45:23;;;;;;;21.40;15.05;;;20.20;93.70;;;;;;5062903;28;20026;-66
2021/08/13 05:47:49;;;;;;;18.38;14.27;;;20.30;93.70;;;;;;5060213;28;20103;-68
2021/08/13 05:50:18;;;;;;;19.23;14.30;;;20.30;93.70;;;;;;5054381;28;20412;-67
2021/08/13 05:52:45;;;;;;;19.08;14.20;;;20.30;93.70;;;;;;5059980;28;20449;-67
2021/08/13 05:55:11;;;;;;;16.38;13.73;;;20.40;93.60;;;;;;5060958;28;20608;-67
2021/08/13 05:57:37;;;;;;;16.70;13.25;;;20.40;93.70;;;;;;5059942;28;20017;-67
2021/08/13 06:00:04;;;;;;;15.93;13.15;;;20.40;93.70;;;;;;5059480;28;20383;-66
2021/08/13 06:02:29;;;;;;;18.40;13.23;;;20.40;93.50;;;;;;5059548;28;20056;-68
2021/08/13 06:04:56;;;;;;;16.00;11.80;;;20.50;93.20;;;;;;5061283;28;20469;-68
2021/08/13 06:07:22;;;;;;;15.38;11.27;;;20.50;93.00;;;;;;5059987;28;20042;-67
2021/08/13 06:09:48;;;;;;;16.05;11.32;;;20.50;92.70;;;;;;5060816;28;20017;-66
2021/08/13 06:12:13;;;;;;;15.52;11.43;;;20.50;92.60;;;;;;5051597;28;21378;-67
2021/08/13 06:14:39;;;;;;;19.35;11.60;;;20.60;92.40;;;;;;5054503;28;20025;-67
2021/08/13 06:17:05;;;;;;;14.82;9.50;;;20.60;92.30;;;;;;5057088;28;20108;-66
2021/08/13 06:19:31;;;;;;;13.98;9.18;;;20.60;92.30;;;;;;5058626;28;20438;-67
2021/08/13 06:21:57;;;;;;;13.57;10.68;;;20.70;92.50;;;;;;5058575;28;20068;-67
2021/08/13 06:24:23;;;;;;;20.88;12.10;;;20.70;91.90;;;;;;5056718;28;20029;-67
2021/08/13 06:26:49;;;;;;;13.98;9.90;;;20.80;91.90;;;;;;5058585;28;20463;-67
2021/08/13 06:29:14;;;;;;;14.48;10.20;;;20.80;91.90;;;;;;5058942;28;20056;-67
2021/08/13 06:31:40;;;;;;;15.65;9.45;;;20.90;91.80;;;;;;5056850;28;20102;-67
2021/08/13 06:34:06;;;;;;;13.10;8.75;;;20.80;91.80;;;;;;5057788;28;20029;-67
2021/08/13 06:36:31;;;;;;;10.90;8.68;;;20.90;91.70;;;;;;5060851;28;20044;-67
2021/08/13 06:38:57;;;;;;;13.48;7.30;;;20.90;91.60;;;;;;5057688;28;20093;-67
2021/08/13 06:41:23;;;;;;;10.00;6.53;;;20.90;91.50;;;;;;5040279;28;20705;-69
2021/08/13 06:43:48;;;;;;;9.75;7.07;;;20.90;91.20;;;;;;5058888;28;20047;-67
2021/08/13 06:46:14;;;;;;;9.93;7.63;;;20.90;90.60;;;;;;5055658;28;20112;-67
2021/08/13 06:48:40;;;;;;;8.45;6.72;;;20.90;90.50;;;;;;5052171;28;20029;-67
2021/08/13 06:51:05;;;;;;;7.72;5.63;;;21.00;90.40;;;;;;5034721;28;20092;-67
2021/08/13 06:53:31;;;;;;;6.93;5.97;;;21.10;90.30;;;;;;5049085;28;20037;-69
2021/08/13 06:55:57;;;;;;;9.25;7.00;;;21.10;90.30;;;;;;5057839;28;20489;-68
2021/08/13 06:58:23;;;;;;;7.72;6.10;;;21.20;89.80;;;;;;5059725;28;20490;-68
2021/08/13 07:00:48;;;;;;;10.88;7.13;;;21.30;89.80;;;;;;5055687;28;20025;-67
2021/08/13 07:03:14;;;;;;;8.65;6.63;;;21.30;88.70;;;;;;5059251;28;20021;-67
2021/08/13 07:05:41;;;;;;;9.73;6.70;;;21.40;88.70;;;;;;5059555;28;20051;-68
2021/08/13 07:08:08;;;;;;;6.38;5.72;;;21.40;88.30;;;;;;5038909;28;20025;-67
2021/08/13 07:10:34;;;;;;;11.00;6.25;;;21.50;88.90;;;;;;5041194;28;20028;-67
2021/08/13 07:13:00;;;;;;;10.18;6.90;;;21.50;88.90;;;;;;5057987;28;20062;-67
2021/08/13 07:15:26;;;;;;;10.80;6.05;;;21.40;88.20;;;;;;5040139;28;20032;-68
2021/08/13 07:17:51;;;;;;;9.00;6.40;;;21.50;88.70;;;;;;5041348;28;20434;-69
2021/08/13 07:20:17;;;;;;;8.85;6.68;;;21.60;88.10;;;;;;5057234;28;20104;-67
2021/08/13 07:22:43;;;;;;;10.00;6.63;;;21.70;88.00;;;;;;5037346;28;20491;-69
2021/08/13 07:25:09;;;;;;;6.97;5.63;;;21.70;87.60;;;;;;5057680;28;20021;-71
2021/08/13 07:27:35;;;;;;;8.57;6.38;;;21.80;87.70;;;;;;5057879;28;20078;-71
2021/08/13 07:30:01;;;;;;;7.93;6.30;;;21.80;87.40;;;;;;5056376;28;20088;-70
2021/08/13 07:32:27;;;;;;;12.65;6.85;;;21.80;87.10;;;;;;5054076;28;20390;-70
2021/08/13 07:34:53;;;;;;;9.30;7.22;;;21.80;86.50;;;;;;5040115;28;20074;-71
2021/08/13 07:37:18;;;;;;;10.15;6.95;;;21.70;86.70;;;;;;5040838;28;20040;-70
2021/08/13 07:39:44;;;;;;;9.90;7.57;;;21.80;86.90;;;;;;5040172;28;20029;-70
2021/08/13 07:42:10;;;;;;;8.27;6.82;;;21.80;86.60;;;;;;5057753;28;20044;-70
2021/08/13 07:44:35;;;;;;;9.48;7.38;;;21.80;86.80;;;;;;5058336;28;20041;-69
2021/08/13 07:47:01;;;;;;;9.90;7.32;;;21.70;86.50;;;;;;5055433;28;20044;-70
2021/08/13 07:49:27;;;;;;;10.07;7.25;;;21.80;86.00;;;;;;5058876;28;20027;-69
2021/08/13 07:51:53;;;;;;;10.35;6.80;;;21.90;86.50;;;;;;5057761;28;20039;-70
2021/08/13 07:54:18;;;;;;;8.57;6.63;;;21.90;86.40;;;;;;5037453;28;20041;-69
2021/08/13 07:56:44;;;;;;;9.43;7.18;;;21.90;86.90;;;;;;5052789;28;20020;-69
2021/08/13 07:59:10;;;;;;;9.65;7.10;;;22.00;86.40;;;;;;5054154;28;20028;-70
2021/08/13 08:01:35;;;;;;;10.32;8.20;;;22.00;86.00;;;;;;5055222;28;20478;-69
2021/08/13 08:04:01;;;;;;;8.65;6.60;;;22.20;84.50;;;;;;5057306;28;20119;-71
2021/08/13 08:06:29;;;;;;;10.18;6.75;;;22.20;84.20;;;;;;5056254;28;20034;-70
2021/08/13 08:08:56;;;;;;;8.02;6.38;;;22.20;84.40;;;;;;5056219;28;20060;-70
2021/08/13 08:11:21;;;;;;;7.72;6.35;;;22.30;84.90;;;;;;5057433;28;20454;-70
2021/08/13 08:13:47;;;;;;;7.93;6.03;;;22.30;84.90;;;;;;5037636;28;20043;-70
2021/08/13 08:16:13;;;;;;;7.57;6.28;;;22.40;85.00;;;;;;5038869;28;20646;-70
2021/08/13 08:18:38;;;;;;;8.07;6.43;;;22.40;84.80;;;;;;5036075;28;20068;-69
2021/08/13 08:21:04;;;;;;;8.75;7.22;;;22.40;84.80;;;;;;5056122;28;20024;-69
2021/08/13 08:23:30;;;;;;;8.15;6.45;;;22.50;84.80;;;;;;5035606;28;20025;-69
2021/08/13 08:25:55;;;;;;;10.45;7.15;;;22.50;84.80;;;;;;5055083;28;20033;-69
2021/08/13 08:28:21;;;;;;;8.27;6.22;;;22.50;84.00;;;;;;5056507;28;20024;-69
2021/08/13 08:30:47;;;;;;;9.40;7.25;;;22.60;84.40;;;;;;5056426;28;20086;-70
2021/08/13 08:33:13;;;;;;;11.60;7.00;;;22.70;84.30;;;;;;5055299;28;20464;-69
2021/08/13 08:35:38;;;;;;;11.77;7.78;;;22.80;84.30;;;;;;5054531;28;20025;-69
2021/08/13 08:38:04;;;;;;;10.07;6.43;;;22.90;82.70;;;;;;5055130;28;20033;-69
2021/08/13 08:40:36;;;;;;;12.20;6.75;;;23.00;83.00;;;;;;5052824;28;20029;-68
2021/08/13 08:43:05;;;;;;;9.65;6.28;;;23.00;83.40;;;;;;5055911;28;20028;-69
2021/08/13 08:45:35;;;;;;;7.70;6.80;;;23.10;83.50;;;;;;5054030;28;20453;-70
2021/08/13 08:48:03;;;;;;;11.68;7.20;;;23.10;83.30;;;;;;5055108;28;20060;-78
2021/08/13 08:50:30;;;;;;;8.88;6.85;;;23.00;82.50;;;;;;5036651;28;20040;-71
2021/08/13 08:52:59;;;;;;;7.90;6.97;;;23.10;82.50;;;;;;5058299;28;20028;-70
2021/08/13 08:55:26;;;;;;;10.15;6.70;;;23.10;82.70;;;;;;5057679;28;20422;-70
2021/08/13 08:57:54;;;;;;;10.00;6.93;;;23.20;82.50;;;;;;5056418;28;20265;-69
2021/08/13 09:00:23;;;;;;;8.60;6.85;;;23.30;81.90;;;;;;5059210;28;20025;-69
2021/08/13 09:02:49;;;;;;;8.18;6.00;;;23.30;82.10;;;;;;5056460;28;20386;-70
2021/08/13 09:05:15;;;;;;;7.88;6.35;;;23.40;82.30;;;;;;5040449;28;20033;-70
2021/08/13 09:07:41;;;;;;;9.63;7.07;;;23.50;82.20;;;;;;5034929;28;20036;-70
2021/08/13 09:10:11;;;;;;;7.38;5.93;;;23.50;81.80;;;;;;5055414;28;20487;-70
2021/08/13 09:12:37;;;;;;;9.33;6.80;;;23.60;82.10;;;;;;5037761;28;20064;-69
2021/08/13 09:15:04;;;;;;;8.70;6.32;;;23.60;82.50;;;;;;5056335;28;20426;-70
2021/08/13 09:17:31;;;;;;;9.05;6.82;;;23.60;82.10;;;;;;5055479;28;20048;-70
2021/08/13 09:19:58;;;;;;;11.65;7.90;;;23.60;81.90;;;;;;5037864;28;20063;-69
2021/08/13 09:22:25;;;;;;;12.18;6.90;;;23.80;80.90;;;;;;5057488;28;20056;-70
2021/08/13 09:24:53;;;;;;;9.05;6.18;;;23.90;81.20;;;;;;5054444;28;20063;-69
2021/08/13 09:27:28;;;;;;;7.93;6.28;;;24.00;81.10;;;;;;5037201;28;20039;-69
2021/08/13 09:30:07;;;;;;;11.65;7.40;;;24.10;80.60;;;;;;5055735;28;20104;-69
2021/08/13 09:32:34;;;;;;;8.40;6.32;;;24.20;81.00;;;;;;5020118;28;20203;-70
2021/08/13 09:35:00;;;;;;;8.77;7.10;;;24.30;80.20;;;;;;5039066;28;20032;-70
2021/08/13 09:37:26;;;;;;;9.13;6.53;;;24.40;78.70;;;;;;5056664;28;20037;-70
2021/08/13 09:39:54;;;;;;;6.80;5.88;;;24.50;78.70;;;;;;5057608;28;20039;-69
2021/08/13 09:42:20;;;;;;;9.13;7.18;;;24.60;79.40;;;;;;5055210;28;20389;-69
2021/08/13 09:45:00;;;;;;;9.50;7.25;;;24.80;77.80;;;;;;5054025;28;20025;-70
2021/08/13 09:47:38;;;;;;;8.00;6.68;;;24.90;75.70;;;;;;5053555;28;20459;-68
2021/08/13 09:50:06;;;;;;;7.55;6.40;;;24.90;75.90;;;;;;5055779;28;20035;-70
2021/08/13 09:52:31;;;;;;;8.13;6.45;;;24.90;76.70;;;;;;5054132;28;20090;-70
2021/08/13 09:55:11;;;;;;;9.32;7.13;;;25.00;77.20;;;;;;5054878;28;20020;-70
2021/08/13 09:57:46;;;;;;;8.45;6.47;;;25.10;77.40;;;;;;5056583;28;20550;-70
2021/08/13 10:00:14;;;;;;;9.15;7.25;;;25.10;76.10;;;;;;5052846;28;20106;-71
2021/08/13 10:02:41;;;;;;;10.50;7.25;;;25.20;75.00;;;;;;5055277;28;20079;-72
2021/08/13 10:05:23;;;;;;;9.00;6.95;;;25.20;75.10;;;;;;5038888;28;20525;-66
2021/08/13 10:07:51;;;;;;;11.20;7.55;;;25.40;74.60;;;;;;5056548;28;20021;-69
2021/08/13 10:10:29;;;;;;;7.43;6.60;;;25.30;75.30;;;;;;5038614;28;20066;-70
2021/08/13 10:12:55;;;;;;;7.93;6.15;;;25.40;76.00;;;;;;5057669;28;20496;-69
2021/08/13 10:15:30;;;;;;;8.07;6.90;;;25.50;75.10;;;;;;5019175;28;20052;-70
2021/08/13 10:17:59;;;;;;;8.80;6.78;;;25.60;74.10;;;;;;5052760;28;20029;-73
2021/08/13 10:20:27;;;;;;;7.15;5.88;;;25.60;73.50;;;;;;5061271;28;20477;-73
2021/08/13 10:22:54;;;;;;;8.25;7.05;;;25.60;74.60;;;;;;5042688;28;20040;-80
2021/08/13 10:25:20;;;;;;;12.13;7.28;;;25.70;74.40;;;;;;5044918;28;20032;-76
2021/08/13 10:27:47;;;;;;;8.15;6.45;;;25.80;73.00;;;;;;5059581;28;20028;-75
2021/08/13 10:30:16;;;;;;;8.70;6.60;;;25.90;73.40;;;;;;5040865;28;20057;-71
2021/08/13 10:32:43;;;;;;;9.07;6.55;;;26.00;73.60;;;;;;5062751;28;20039;-70
2021/08/13 10:35:09;;;;;;;9.00;6.45;;;26.10;72.80;;;;;;5058962;28;20025;-70
2021/08/13 10:37:37;;;;;;;9.20;6.85;;;26.10;72.50;;;;;;5058676;28;20439;-70
2021/08/13 10:40:03;;;;;;;7.97;6.93;;;26.10;72.70;;;;;;5042612;28;20450;-70
2021/08/13 10:42:31;;;;;;;7.72;6.70;;;26.20;73.20;;;;;;5058766;28;20466;-71
2021/08/13 10:45:04;;;;;;;7.53;6.72;;;26.20;73.20;;;;;;5059317;28;20120;-71
2021/08/13 10:47:34;;;;;;;9.88;6.57;;;26.20;73.50;;;;;;5055984;28;20103;-71
2021/08/13 10:50:02;;;;;;;9.98;7.32;;;26.20;73.40;;;;;;5038957;28;20029;-71
2021/08/13 10:52:36;;;;;;;9.75;6.57;;;26.20;73.00;;;;;;5051852;28;23047;-71
2021/08/13 10:55:07;;;;;;;8.55;6.30;;;26.30;72.50;;;;;;5042954;28;20043;-72
2021/08/13 10:57:48;;;;;;;10.77;7.57;;;26.30;72.60;;;;;;5038577;28;20056;-69
2021/08/13 11:00:13;;;;;;;;;;;26.60;70.60;;;;;;5038522;28;20056;-69
2021/08/13 11:02:39;;;;;;;8.27;6.95;;;26.60;69.10;;;;;;5038572;28;19908;-69
2021/08/13 11:05:05;;;;;;;6.80;6.10;;;26.60;70.30;;;;;;5063312;28;20106;-69
2021/08/13 11:07:59;;;;;;;8.55;6.60;;;26.70;71.10;;;;;;5059972;28;20028;-70
2021/08/13 11:10:37;;;;;;;7.45;5.95;;;26.70;70.40;;;;;;5039961;28;20116;-70
2021/08/13 11:13:35;;;;;;;9.13;6.18;;;26.90;69.30;;;;;;5035936;28;20025;-69
2021/08/13 11:16:01;;;;;;;7.90;6.45;;;27.10;70.00;;;;;;5058739;28;20502;-70
2021/08/13 11:18:36;;;;;;;7.88;6.13;;;27.10;69.60;;;;;;5042557;28;20032;-70
2021/08/13 11:21:05;;;;;;;6.50;5.72;;;27.00;69.00;;;;;;5060344;28;20107;-69
2021/08/13 11:23:32;;;;;;;7.10;5.78;;;26.80;69.40;;;;;;5041290;28;20566;-70
2021/08/13 11:25:58;;;;;;;7.80;6.40;;;26.80;70.00;;;;;;5058886;28;20092;-68
2021/08/13 11:28:30;;;;;;;8.30;6.50;;;26.90;70.70;;;;;;5057464;28;20025;-71
2021/08/13 11:30:58;;;;;;;9.88;6.20;;;27.00;70.70;;;;;;5059325;28;20033;-69
2021/08/13 11:33:44;;;;;;;9.73;6.38;;;27.40;68.60;;;;;;5059723;28;20032;-69
2021/08/13 11:36:48;;;;;;;6.75;6.03;;;27.80;68.50;;;;;;5058080;28;20040;-70
2021/08/13 11:39:35;;;;;;;8.10;6.25;;;28.30;67.80;;;;;;5060162;28;20032;-69
2021/08/13 11:42:09;;;;;;;9.50;6.32;;;28.60;65.60;;;;;;5038618;28;20032;-70
2021/08/13 11:44:36;;;;;;;8.50;6.13;;;28.90;64.70;;;;;;5058548;28;20059;-70
2021/08/13 11:47:02;;;;;;;8.15;5.95;;;29.80;63.50;;;;;;5058523;28;20112;-69
2021/08/13 11:49:30;;;;;;;8.45;6.10;;;30.60;60.80;;;;;;5054947;28;20024;-69
2021/08/13 11:51:56;;;;;;;8.95;6.38;;;30.90;60.20;;;;;;5058744;28;20032;-71
2021/08/13 11:54:27;;;;;;;10.45;6.25;;;30.70;58.00;;;;;;5059226;28;20040;-70
2021/08/13 11:56:53;;;;;;;10.25;7.13;;;30.50;57.80;;;;;;5057180;28;20057;-69
2021/08/13 11:59:19;;;;;;;12.77;8.95;;;30.10;58.80;;;;;;5058205;28;20485;-69
2021/08/13 12:01:54;;;;;;;12.13;7.38;;;29.80;60.10;;;;;;5056653;28;20044;-69
2021/08/13 12:04:21;;;;;;;9.65;7.78;;;29.90;58.10;;;;;;5039845;28;20082;-70
2021/08/13 12:07:04;;;;;;;13.70;9.38;;;30.00;59.40;;;;;;5055090;28;20013;-69
2021/08/13 12:09:42;;;;;;;15.18;9.82;;;30.30;59.50;;;;;;5055591;28;20493;-70
2021/08/13 12:12:10;;;;;;;13.45;8.07;;;30.30;59.80;;;;;;5056138;28;20516;-70
2021/08/13 12:14:37;;;;;;;14.02;8.45;;;30.60;58.20;;;;;;5052666;28;20087;-70
2021/08/13 12:17:04;;;;;;;11.85;8.50;;;30.80;57.70;;;;;;5055842;28;20068;-69
2021/08/13 12:19:30;;;;;;;10.10;8.00;;;30.90;57.30;;;;;;5056768;28;20029;-68
2021/08/13 12:22:07;;;;;;;9.60;7.43;;;30.50;58.30;;;;;;5053762;28;20020;-71
2021/08/13 12:24:37;;;;;;;9.10;6.30;;;29.80;59.50;;;;;;5059228;28;20068;-69
2021/08/13 12:27:09;;;;;;;10.27;7.22;;;29.20;61.00;;;;;;5054567;28;20020;-70
2021/08/13 12:29:38;;;;;;;8.07;6.78;;;28.60;60.90;;;;;;5057749;28;20021;-69
2021/08/13 12:32:06;;;;;;;9.38;6.60;;;28.30;62.70;;;;;;5036848;28;20025;-69
2021/08/13 12:34:34;;;;;;;7.68;6.65;;;28.10;64.20;;;;;;5053990;28;20036;-69
2021/08/13 12:37:13;;;;;;;7.55;6.65;;;27.80;65.00;;;;;;5034974;28;20070;-70
2021/08/13 12:39:43;;;;;;;9.73;6.90;;;27.60;65.60;;;;;;5056081;28;20042;-70